Time;durP1;ratioP1;P1;durP2;ratioP2;P2;SDS_P1;SDS_P2;PMS_P1;PMS_P2;Temp;Humidity;BMP_temperature;BMP_pressure;BME280_temperature;BME280_humidity;BME280_pressure;Samples;Min_cycle;Max_cycle;Signal;HPM_P1;HPM_P2
2022/02/08 17:35:01;;;;;;;13.55;9.02;;;;;;;7.52;79.17;100282.28;2617664;47;20529;-68
2022/02/08 17:45:52;;;;;;;13.40;8.18;;;;;;;7.58;79.50;100276.44;2618637;54;20596;-68
2022/02/08 17:48:22;;;;;;;13.00;9.98;;;;;;;7.51;79.65;100278.00;2618854;54;20038;-68
2022/02/08 17:50:54;;;;;;;10.48;7.28;;;;;;;7.49;79.57;100285.19;2619672;54;20038;-67
2022/02/08 17:53:25;;;;;;;13.10;8.13;;;;;;;7.50;79.56;100278.13;2618833;47;20060;-70
2022/02/08 17:55:55;;;;;;;12.15;8.63;;;;;;;7.52;79.61;100274.38;2619757;54;20031;-68
2022/02/08 17:58:25;;;;;;;15.48;9.75;;;;;;;7.52;79.74;100273.56;2620783;31;20543;-69
2022/02/08 18:00:55;;;;;;;11.25;8.50;;;;;;;7.47;79.79;100271.34;2618451;47;20049;-67
2022/02/08 18:03:25;;;;;;;10.68;7.90;;;;;;;7.49;80.03;100273.81;2619745;39;20433;-69
2022/02/08 18:05:57;;;;;;;13.02;9.02;;;;;;;7.50;79.93;100278.94;2619074;54;20031;-69
2022/02/08 18:08:28;;;;;;;14.93;10.30;;;;;;;7.50;79.90;100280.75;2619762;54;20521;-69
2022/02/08 18:10:58;;;;;;;14.38;11.18;;;;;;;7.53;79.82;100285.75;2618418;47;20026;-69
2022/02/08 18:13:31;;;;;;;14.73;11.13;;;;;;;7.49;80.27;100286.97;2619017;54;20027;-69
2022/02/08 18:16:02;;;;;;;11.55;10.35;;;;;;;7.50;80.19;100293.91;2618804;54;20034;-70
2022/02/08 18:18:37;;;;;;;9.70;7.38;;;;;;;7.47;80.59;100292.38;2619282;39;20366;-68
2022/02/08 18:21:18;;;;;;;8.98;7.05;;;;;;;7.47;80.83;100300.28;2619532;54;20031;-68
2022/02/08 18:24:19;;;;;;;13.10;8.38;;;;;;;7.55;80.58;100296.94;2619745;54;20538;-68
2022/02/08 19:07:41;;;;;;;7.90;6.97;;;;;;;7.56;80.89;100311.78;2618723;54;20038;-69
2022/02/08 19:11:03;;;;;;;8.25;6.93;;;;;;;7.55;80.97;100299.56;2618679;54;20552;-68
2022/02/08 19:13:50;;;;;;;8.75;7.10;;;;;;;7.51;81.01;100308.72;2618109;54;20038;-69
2022/02/08 19:16:25;;;;;;;11.55;7.82;;;;;;;7.54;81.08;100317.16;2618177;54;20046;-70
2022/02/08 19:19:06;;;;;;;11.65;7.25;;;;;;;7.59;80.92;100308.88;2618007;54;20027;-69
2022/02/08 19:21:43;;;;;;;11.02;7.68;;;;;;;7.61;81.02;100312.22;2618680;54;20035;-69
2022/02/08 19:24:18;;;;;;;11.85;9.55;;;;;;;7.66;81.08;100305.56;2618735;39;20470;-68
2022/02/08 19:26:55;;;;;;;9.98;8.20;;;;;;;7.67;80.77;100304.59;2618756;54;20037;-69
2022/02/08 19:29:26;;;;;;;11.10;8.68;;;;;;;7.69;80.95;100297.38;2618328;54;20062;-68
2022/02/08 19:31:57;;;;;;;8.38;6.60;;;;;;;7.69;80.80;100305.28;2618968;39;20415;-68
2022/02/08 19:34:27;;;;;;;8.75;7.25;;;;;;;7.75;80.50;100306.53;2618410;54;20035;-69
2022/02/08 19:37:00;;;;;;;11.60;8.18;;;;;;;7.75;80.38;100305.69;2618342;47;20027;-70
2022/02/08 19:39:30;;;;;;;8.43;6.75;;;;;;;7.75;80.49;100311.78;2618500;47;20030;-68
2022/02/08 19:42:03;;;;;;;7.57;6.78;;;;;;;7.77;80.75;100311.66;2620275;54;20093;-69
2022/02/08 19:44:38;;;;;;;9.18;6.88;;;;;;;7.75;80.79;100305.69;2620836;54;20038;-69
2022/02/08 19:47:09;;;;;;;13.10;9.35;;;;;;;7.78;80.64;100310.69;2620939;54;20073;-69
2022/02/08 19:49:39;;;;;;;9.77;7.22;;;;;;;7.74;80.43;100315.41;2619210;54;20022;-68
2022/02/08 19:52:08;;;;;;;10.27;7.57;;;;;;;7.75;80.35;100321.50;2620370;54;20296;-70
2022/02/08 19:54:49;;;;;;;9.18;7.28;;;;;;;7.78;80.67;100321.22;2620340;54;20034;-70
2022/02/08 19:57:25;;;;;;;11.27;8.07;;;;;;;7.81;80.14;100321.78;2618932;46;20027;-69
2022/02/08 19:59:57;;;;;;;10.23;7.68;;;;;;;7.79;80.15;100313.19;2618173;47;20038;-69
2022/02/08 20:02:29;;;;;;;8.63;7.20;;;;;;;7.78;80.16;100308.88;2618905;54;20825;-68
2022/02/08 20:04:59;;;;;;;8.32;7.03;;;;;;;7.78;80.59;100311.53;2619227;54;20035;-69
2022/02/08 20:07:28;;;;;;;8.07;6.70;;;;;;;7.78;80.51;100306.25;2618555;54;20161;-68
2022/02/08 20:09:58;;;;;;;10.95;7.93;;;;;;;7.80;80.26;100306.97;2618476;54;20045;-69
2022/02/08 20:12:32;;;;;;;16.05;10.63;;;;;;;7.78;80.59;100305.44;2618927;54;20027;-70
2022/02/08 20:15:09;;;;;;;17.80;12.52;;;;;;;7.80;80.54;100309.59;2618606;54;20030;-69
2022/02/08 20:17:39;;;;;;;16.48;10.27;;;;;;;7.84;79.96;100310.97;2619082;54;20564;-69
2022/02/08 20:20:15;;;;;;;27.98;16.70;;;;;;;7.81;80.04;100310.44;2619250;54;20026;-68
2022/02/08 20:22:50;;;;;;;25.27;16.73;;;;;;;7.82;80.39;100302.38;2620091;54;20562;-68
2022/02/08 20:25:22;;;;;;;31.13;19.50;;;;;;;7.80;80.62;100308.78;2619661;47;20034;-69
2022/02/08 20:28:03;;;;;;;20.55;16.42;;;;;;;7.83;80.33;100303.19;2620522;54;20026;-70
2022/02/08 20:30:35;;;;;;;14.52;12.90;;;;;;;7.82;80.25;100302.38;2621829;54;20031;-69
2022/02/08 20:33:06;;;;;;;16.63;14.88;;;;;;;7.77;80.16;100298.50;2620879;54;20566;-69
2022/02/08 20:35:36;;;;;;;14.40;12.10;;;;;;;7.75;80.54;100306.53;2621002;54;20077;-68
2022/02/08 20:38:06;;;;;;;7.40;6.00;;;;;;;7.76;80.22;100302.13;2622667;54;20030;-69
2022/02/08 20:40:39;;;;;;;8.02;7.28;;;;;;;7.74;80.34;100302.25;2622991;46;20027;-69
2022/02/08 20:43:13;;;;;;;7.63;6.10;;;;;;;7.72;80.88;100301.56;2622933;54;20038;-70
2022/02/08 20:45:43;;;;;;;10.63;7.13;;;;;;;7.75;80.40;100305.69;2622367;54;20161;-70
2022/02/08 20:48:13;;;;;;;7.07;6.35;;;;;;;7.74;80.64;100304.03;2621892;54;20026;-69
2022/02/08 20:50:44;;;;;;;9.38;8.48;;;;;;;7.73;80.71;100308.47;2626093;39;20425;-68
2022/02/08 20:53:23;;;;;;;7.50;6.60;;;;;;;7.70;80.42;100309.56;2626168;54;20030;-68
2022/02/08 20:56:08;;;;;;;8.00;6.95;;;;;;;7.72;80.49;100306.81;2625332;47;20034;-68
2022/02/08 20:58:53;;;;;;;8.40;6.45;;;;;;;7.74;80.69;100307.50;2626382;54;20026;-68
2022/02/08 21:01:23;;;;;;;6.88;6.13;;;;;;;7.70;80.50;100296.41;2624007;47;20022;-70
2022/02/08 21:04:00;;;;;;;7.10;5.88;;;;;;;7.74;80.43;100298.78;2621266;54;20049;-69
2022/02/08 21:06:31;;;;;;;6.57;5.97;;;;;;;7.73;80.95;100289.22;2618934;47;20107;-68
2022/02/08 21:09:03;;;;;;;9.32;6.88;;;;;;;7.73;80.45;100294.50;2619550;54;20125;-70
2022/02/08 21:11:36;;;;;;;8.50;7.25;;;;;;;7.72;80.51;100293.66;2620674;39;20358;-69
2022/02/08 21:14:13;;;;;;;8.88;7.45;;;;;;;7.73;80.57;100294.50;2619985;54;20026;-69
2022/02/08 21:16:46;;;;;;;8.35;6.40;;;;;;;7.73;80.57;100297.94;2619774;54;20062;-69
2022/02/08 21:19:19;;;;;;;7.15;6.28;;;;;;;7.73;80.70;100303.22;2620297;47;20058;-70
2022/02/08 21:21:49;;;;;;;7.72;5.97;;;;;;;7.71;80.42;100302.50;2620798;54;20065;-69
2022/02/08 21:24:20;;;;;;;8.45;6.60;;;;;;;7.71;80.91;100305.13;2620558;54;20034;-70
2022/02/08 21:26:53;;;;;;;7.47;5.78;;;;;;;7.71;80.53;100305.13;2618977;54;20042;-70
2022/02/08 21:29:42;;;;;;;14.07;6.30;;;;;;;7.76;80.75;100307.38;2619562;54;20030;-69
2022/02/08 21:43:58;;;;;;;6.90;6.20;;;;;;;7.74;80.00;100280.34;2621424;54;20038;-69
2022/02/08 21:49:16;;;;;;;8.05;6.25;;;;;;;7.77;79.83;100280.06;2619839;47;20030;-68
2022/02/08 21:52:09;;;;;;;7.63;6.82;;;;;;;7.75;79.94;100279.38;2621360;54;20037;-68
2022/02/08 21:54:41;;;;;;;6.85;6.10;;;;;;;7.74;80.01;100275.09;2619641;47;20045;-69
2022/02/08 21:57:13;;;;;;;7.75;6.90;;;;;;;7.73;80.01;100274.25;2618821;54;20036;-70
2022/02/08 21:59:43;;;;;;;7.88;6.30;;;;;;;7.75;79.91;100271.47;2618012;50;20042;-70
2022/02/08 22:02:16;;;;;;;9.10;6.50;;;;;;;7.67;79.86;100273.03;2618501;54;20077;-69
2022/02/08 22:04:46;;;;;;;7.85;6.80;;;;;;;7.67;80.44;100278.28;2618989;39;20463;-70
2022/02/08 22:07:16;;;;;;;8.30;6.65;;;;;;;7.71;80.33;100284.06;2618270;54;20038;-70
2022/02/08 22:09:55;;;;;;;8.65;7.05;;;;;;;7.71;79.64;100278.81;2618443;54;20050;-70
2022/02/08 22:18:37;;;;;;;8.57;7.35;;;;;;;7.77;79.95;100290.59;2616671;54;20554;-67
2022/02/08 22:21:12;;;;;;;9.75;8.05;;;;;;;7.80;79.99;100291.16;2617963;54;20058;-69
2022/02/08 22:23:51;;;;;;;8.00;7.18;;;;;;;7.83;79.80;100292.66;2617520;47;20061;-69
2022/02/08 22:26:50;;;;;;;8.88;7.97;;;;;;;7.82;79.91;100293.66;2617477;54;20157;-69
2022/02/08 22:29:27;;;;;;;10.80;7.88;;;;;;;7.85;79.87;100294.22;2618079;54;20045;-69
2022/02/08 22:32:03;;;;;;;8.55;7.65;;;;;;;7.85;79.54;100298.66;2618649;39;20399;-68
2022/02/08 22:34:44;;;;;;;9.10;7.57;;;;;;;7.85;79.93;100303.91;2617543;47;20038;-68
2022/02/08 22:37:19;;;;;;;8.25;7.22;;;;;;;7.86;79.66;100297.66;2618151;54;20561;-71
2022/02/08 22:39:55;;;;;;;12.30;7.60;;;;;;;7.85;79.31;100294.22;2619450;47;20679;-69
2022/02/08 22:42:31;;;;;;;11.77;9.95;;;;;;;7.80;79.08;100290.34;2619725;54;20026;-69
2022/02/08 22:45:01;;;;;;;10.10;9.00;;;;;;;7.75;79.48;100289.91;2619404;54;20052;-69
2022/02/08 22:47:32;;;;;;;10.52;7.65;;;;;;;7.74;79.59;100296.16;2619409;54;20080;-68
2022/02/08 22:50:04;;;;;;;9.23;7.78;;;;;;;7.72;79.41;100288.41;2619820;51;20057;-68
2022/02/08 22:52:35;;;;;;;7.32;6.63;;;;;;;7.70;79.36;100285.88;2619659;54;20117;-70
2022/02/08 22:55:05;;;;;;;10.10;7.60;;;;;;;7.75;79.91;100277.56;2618540;54;20034;-70
2022/02/08 22:57:37;;;;;;;11.02;8.13;;;;;;;7.72;79.32;100280.50;2619239;39;20426;-70
2022/02/08 23:03:02;;;;;;;8.48;7.13;;;;;;;7.66;79.48;100281.84;2613316;54;20026;-67
2022/02/08 23:05:35;;;;;;;7.53;6.72;;;;;;;7.72;79.79;100280.50;2623246;47;20038;-66
2022/02/08 23:08:05;;;;;;;8.67;7.53;;;;;;;7.74;79.51;100278.53;2622325;47;20026;-66
2022/02/08 23:10:44;;;;;;;8.98;7.00;;;;;;;7.74;79.46;100275.91;2622516;54;20026;-66
2022/02/08 23:13:19;;;;;;;7.68;6.68;;;;;;;7.77;79.15;100280.91;2622475;54;20041;-66
2022/02/08 23:16:14;;;;;;;8.38;7.55;;;;;;;7.72;79.31;100280.50;2617529;54;20039;-69
2022/02/08 23:37:53;;;;;;;9.15;8.18;;;;;;;7.68;79.15;100284.38;2618375;54;20026;-69
2022/02/08 23:40:23;;;;;;;8.38;6.93;;;;;;;7.70;79.21;100287.69;2619588;47;20039;-72
2022/02/08 23:42:54;;;;;;;8.10;7.13;;;;;;;7.74;79.38;100290.88;2620221;54;20041;-69
2022/02/08 23:45:24;;;;;;;10.18;8.15;;;;;;;7.77;79.00;100293.25;2620232;54;20073;-68
2022/02/08 23:48:00;;;;;;;10.00;7.45;;;;;;;7.75;79.22;100295.16;2620440;54;20037;-68
2022/02/08 23:50:37;;;;;;;7.00;6.25;;;;;;;7.72;78.92;100298.09;2618681;47;20030;-69
2022/02/08 23:53:18;;;;;;;8.10;7.30;;;;;;;7.76;78.83;100291.59;2620065;54;20034;-70
2022/02/08 23:55:53;;;;;;;8.38;7.35;;;;;;;7.77;79.25;100291.44;2619327;47;20027;-69
2022/02/08 23:58:24;;;;;;;10.13;8.40;;;;;;;7.78;78.96;100287.81;2619507;39;20461;-70
